UUWWUNKL

Guest
Details From UUWW - Vnukovo
To UNKL - Yemelyanovo
Flight Number -
Tags Generated
Created
Modified
Stats Distance 1,810 nm / 3,353 km
Max Altitude 0 ft / 0 m
Waypoints 7
Social Downloads 4
Likes 0
Share VATSIM

Download

Looking for another format? Having issues loading an existing format? Contact us
Advertisement - Login to hide

Notes

Generated

Route

UUWW PUSES VADSA SURUT TUKRA AJ UNKL

ID Type Via Altitude Latitude Longitude Leg Dist Tot Dist Heading (true) Name
O UUWW APT - 0 ft / 0 m 55.58804˚ 37.24603˚ - 0 nm - -
PUSES FIX - 0 ft / 0 m 56.98333˚ 43.16833˚ 214 nm 214 nm 65° / 69° -
VADSA FIX - 0 ft / 0 m 58.15000˚ 50.30000˚ 240 nm 454 nm 70° / 76° -
SURUT FIX - 0 ft / 0 m 58.30000˚ 79.68333˚ 921 nm 1376 nm 77° / 102° -
TUKRA FIX - 0 ft / 0 m 57.26167˚ 86.46500˚ 225 nm 1602 nm 103° / 109° -
AJ NDB - 0 ft / 0 m 56.19333˚ 92.40667˚ 205 nm 1808 nm 106° / 111° KRASNOYARSK NDB
O UNKL APT - 0 ft / 0 m 56.17948˚ 92.46587˚ 2 nm 1810 nm 113° / 113° -

Altitude Profile

Advertisement - Login to hide

Weather


0- 5 10 15 20 25 30 35+ Temperature / ° C

Clouds and Precipitation
Forecast for 2017-12-15 12:00 UTC. Updated an hour ago

Ground ~20,000 ft ~40,000 ft Winds

UUWW

Details ICAO UUWW (VKO)
Name VNUKOVO
Region Russia
Timezone Europe/Moscow (UTC+3.0)
Stats Elevation 685 ft / 209 m (AMSL)
Location 55.596061° 37.267664°
Runways 2
Magnetic Variation 10.960° E

METAR

UUWW 151230Z 22004MPS 9999 OVC007 01/M01 Q1011 R19/290045 NOSIG

Decode

TAF

TAF UUWW 151056Z 1512/1612 17004MPS 6000 OVC004 TX03/1611Z TNM00/1516Z TEMPO 1512/1515 2100 -SN BR BKN002 TEMPO 1515/1606 1000 -SN BR BKN001 PROB40 TEMPO 1516/1524 -FZDZ OVC003 TEMPO 1606/1612 16010MPS 2100 -SHRASN BKN003 BKN015CB

Decode

Departure Runways

ID Width Length Bearing (true) Bearing (mag) Surface Threshold Offset Overrun Length
02 197 ft / 60 m 9,993 ft / 3,046 m 23.36° 12.40° Asphalt 0 ft / 0 m 140 ft / 43 m
06 197 ft / 60 m 9,785 ft / 2,982 m 68.26° 57.30° Asphalt 0 ft / 0 m 250 ft / 76 m
20 197 ft / 60 m 9,993 ft / 3,046 m 203.37° 192.41° Asphalt 0 ft / 0 m 150 ft / 46 m
24 197 ft / 60 m 9,785 ft / 2,982 m 248.29° 237.33° Asphalt 0 ft / 0 m 260 ft / 79 m

UNKL

Details ICAO UNKL (KJA)
Name YEMELYANOVO
Region Russia
Timezone Asia/Krasnoyarsk (UTC+7.0)
Stats Elevation 942 ft / 287 m (AMSL)
Location 56.172946° 92.493276°
Runways 1
Magnetic Variation 4.123° E

METAR

UNKL 151230Z 25008G14MPS 9999 DRSN NSC M08/M13 Q1040 R29/810155 TEMPO 26010G16MPS RMK QFE754

Decode

TAF

TAF UNKL 151051Z 1512/1612 26005G10MPS 9999 SCT020CB TEMPO 1512/1524 26010G16MPS 2500 -SHSN BLSN SCT005 BKN013CB TEMPO 1600/1606 27010G16MPS 1500 SHSN VV004

Decode

Destination Runways

ID Width Length Bearing (true) Bearing (mag) Surface Threshold Offset Overrun Length
11 197 ft / 60 m 12,113 ft / 3,692 m 113.16° 109.04° Asphalt 0 ft / 0 m 235 ft / 72 m
29 197 ft / 60 m 12,113 ft / 3,692 m 293.21° 289.09° Asphalt 0 ft / 0 m 215 ft / 66 m

Popular Alternatives